Time;durP1;ratioP1;P1;durP2;ratioP2;P2;SDS_P1;SDS_P2;PMS_P1;PMS_P2;Temp;Humidity;BMP_temperature;BMP_pressure;BME280_temperature;BME280_humidity;BME280_pressure;Samples;Min_cycle;Max_cycle;Signal;HPM_P1;HPM_P2
2023/03/16 00:02:09;;;;;;;3.42;1.52;;;17.80;1.00;;;;;;5073375;28;20052;-36
2023/03/16 00:04:37;;;;;;;3.20;1.73;;;17.80;1.00;;;;;;5072661;28;20079;-36
2023/03/16 00:07:08;;;;;;;2.50;1.58;;;17.70;1.00;;;;;;5073284;28;20044;-36
2023/03/16 00:09:39;;;;;;;3.30;1.40;;;17.70;1.00;;;;;;5073285;28;20041;-36
2023/03/16 00:12:16;;;;;;;3.35;1.92;;;17.70;1.00;;;;;;5073156;28;20041;-36
2023/03/16 00:14:44;;;;;;;2.10;1.38;;;17.70;1.00;;;;;;5072119;28;20397;-36
2023/03/16 00:17:18;;;;;;;3.58;1.75;;;17.70;1.00;;;;;;5073253;28;20040;-36
2023/03/16 00:19:54;;;;;;;3.00;1.50;;;17.70;1.00;;;;;;5072535;28;20052;-36
2023/03/16 00:22:24;;;;;;;3.05;1.90;;;17.60;1.00;;;;;;5072147;28;20511;-36
2023/03/16 00:24:51;;;;;;;2.85;1.65;;;17.60;1.00;;;;;;5072155;28;20036;-36
2023/03/16 00:27:21;;;;;;;3.00;1.75;;;17.60;1.00;;;;;;5064529;28;20041;-36
2023/03/16 00:29:54;;;;;;;2.90;1.83;;;17.60;1.00;;;;;;5054851;28;20086;-36
2023/03/16 00:32:27;;;;;;;3.43;1.60;;;17.60;1.00;;;;;;5046408;28;20144;-36
2023/03/16 00:34:55;;;;;;;4.05;1.45;;;17.50;1.00;;;;;;5054528;28;20285;-36
2023/03/16 00:37:23;;;;;;;1.92;1.35;;;17.50;1.00;;;;;;5052490;28;20058;-36
2023/03/16 00:39:54;;;;;;;3.65;1.85;;;17.50;1.00;;;;;;5049866;28;20083;-36
2023/03/16 00:42:27;;;;;;;2.10;1.42;;;17.50;1.00;;;;;;5054504;28;20054;-36
2023/03/16 00:44:56;;;;;;;3.27;1.70;;;17.50;1.00;;;;;;5054362;28;20559;-36
2023/03/16 00:47:29;;;;;;;3.95;1.63;;;17.40;1.00;;;;;;5054752;28;20124;-36
2023/03/16 00:49:56;;;;;;;2.78;2.20;;;17.40;1.00;;;;;;5054687;28;20076;-37
2023/03/16 00:52:24;;;;;;;2.55;1.73;;;17.40;1.00;;;;;;5041210;28;20083;-37
2023/03/16 00:54:53;;;;;;;2.63;2.17;;;17.30;1.00;;;;;;5051973;28;20503;-36
2023/03/16 00:57:23;;;;;;;4.30;1.98;;;17.30;1.00;;;;;;5034649;28;20571;-44
2023/03/16 00:59:51;;;;;;;2.55;1.60;;;17.30;1.00;;;;;;5052427;28;20044;-44
2023/03/16 01:02:22;;;;;;;2.53;1.77;;;17.30;1.00;;;;;;5051984;28;20049;-44
2023/03/16 01:04:50;;;;;;;3.20;2.33;;;17.20;1.00;;;;;;5051732;28;20042;-43
2023/03/16 01:07:17;;;;;;;3.85;1.63;;;17.20;1.00;;;;;;5052361;28;20033;-43
2023/03/16 01:09:44;;;;;;;3.25;1.75;;;17.10;1.00;;;;;;5052174;28;20098;-42
2023/03/16 01:12:14;;;;;;;2.58;1.73;;;17.20;1.00;;;;;;5052060;28;20451;-43
2023/03/16 01:14:44;;;;;;;2.10;1.88;;;17.10;1.00;;;;;;5033669;28;20049;-43
2023/03/16 01:17:13;;;;;;;2.67;1.92;;;17.10;1.00;;;;;;5034313;28;20417;-44
2023/03/16 01:19:42;;;;;;;3.95;1.95;;;17.20;1.00;;;;;;5034203;28;20065;-43
2023/03/16 01:22:10;;;;;;;3.13;1.85;;;17.10;1.00;;;;;;5051706;28;20052;-42
2023/03/16 01:24:38;;;;;;;2.83;1.70;;;17.10;1.00;;;;;;5032809;28;20056;-44
2023/03/16 01:27:07;;;;;;;2.70;1.80;;;17.10;1.00;;;;;;5033719;28;20045;-44
2023/03/16 01:29:35;;;;;;;3.55;1.50;;;17.10;1.00;;;;;;5051898;28;20040;-43
2023/03/16 01:32:03;;;;;;;2.40;1.95;;;17.00;1.00;;;;;;5033841;28;20065;-44
2023/03/16 01:34:30;;;;;;;2.47;1.67;;;17.00;1.00;;;;;;5032865;28;20049;-44
2023/03/16 01:36:58;;;;;;;2.22;1.58;;;17.00;1.00;;;;;;5034125;28;20057;-43
2023/03/16 01:39:46;;;;;;;2.28;1.50;;;17.00;1.00;;;;;;5051780;28;20187;-44
2023/03/16 01:42:14;;;;;;;3.88;2.35;;;17.00;1.00;;;;;;5034119;28;20053;-44
2023/03/16 01:45:04;;;;;;;4.25;2.47;;;16.90;1.00;;;;;;5051776;28;20033;-43
2023/03/16 01:47:38;;;;;;;3.08;1.75;;;16.90;1.00;;;;;;5034079;28;20052;-42
2023/03/16 01:50:11;;;;;;;3.13;1.85;;;16.90;1.00;;;;;;5034328;28;20045;-42
2023/03/16 01:52:41;;;;;;;3.28;2.15;;;16.90;1.00;;;;;;5033505;28;20045;-42
2023/03/16 01:55:12;;;;;;;2.70;2.00;;;16.80;1.00;;;;;;5033855;28;20052;-42
2023/03/16 01:57:42;;;;;;;2.85;1.90;;;16.80;1.00;;;;;;5033807;28;20064;-42
2023/03/16 02:00:22;;;;;;;2.33;1.88;;;16.80;1.00;;;;;;5051065;28;20048;-43
2023/03/16 02:03:12;;;;;;;2.75;1.80;;;16.80;1.00;;;;;;5050537;28;20037;-42
2023/03/16 02:06:03;;;;;;;2.97;2.05;;;16.80;1.00;;;;;;5051112;28;20039;-43
2023/03/16 02:08:32;;;;;;;3.40;1.90;;;16.80;1.00;;;;;;5033985;28;20041;-43
2023/03/16 02:11:00;;;;;;;2.35;1.83;;;16.70;1.00;;;;;;5033935;28;20048;-41
2023/03/16 02:13:39;;;;;;;3.83;1.83;;;16.70;1.00;;;;;;5033205;28;20048;-41
2023/03/16 02:16:07;;;;;;;3.08;2.78;;;16.70;1.00;;;;;;5033645;28;20420;-43
2023/03/16 02:18:35;;;;;;;3.92;2.50;;;16.70;1.00;;;;;;5033855;28;20045;-43
2023/03/16 02:21:29;;;;;;;6.00;1.88;;;16.70;1.00;;;;;;5033819;28;20051;-43
2023/03/16 02:23:56;;;;;;;3.92;2.05;;;16.70;1.00;;;;;;5032880;28;20067;-43
2023/03/16 02:26:43;;;;;;;5.65;2.10;;;16.70;1.00;;;;;;5033882;28;20040;-43
2023/03/16 02:29:21;;;;;;;4.00;2.83;;;16.60;1.00;;;;;;5033710;28;20045;-41
2023/03/16 02:31:53;;;;;;;2.58;2.05;;;16.60;1.00;;;;;;5033161;28;20044;-43
2023/03/16 02:34:20;;;;;;;2.38;1.83;;;16.60;1.00;;;;;;5032254;28;20045;-43
2023/03/16 02:36:51;;;;;;;3.00;2.15;;;16.60;1.00;;;;;;5034194;28;20103;-43
2023/03/16 02:39:22;;;;;;;2.10;1.90;;;16.50;1.00;;;;;;5037101;28;20522;-44
2023/03/16 02:41:49;;;;;;;3.78;2.45;;;16.50;1.00;;;;;;5037758;28;20045;-43
2023/03/16 02:44:26;;;;;;;2.72;1.92;;;16.50;1.00;;;;;;5036840;28;20049;-43
2023/03/16 02:47:02;;;;;;;2.95;2.00;;;16.50;1.00;;;;;;5037632;28;20043;-43
2023/03/16 02:49:37;;;;;;;3.95;2.08;;;16.50;1.00;;;;;;5037664;28;20048;-43
2023/03/16 02:52:05;;;;;;;2.80;2.30;;;16.40;1.00;;;;;;5037547;28;20131;-43
2023/03/16 02:54:32;;;;;;;4.70;2.15;;;16.40;1.00;;;;;;5036390;28;20420;-43
2023/03/16 02:56:59;;;;;;;3.10;2.20;;;16.40;1.00;;;;;;5036813;28;20049;-43
2023/03/16 02:59:27;;;;;;;2.47;2.20;;;16.40;1.00;;;;;;5036893;28;20041;-44
2023/03/16 03:01:54;;;;;;;3.90;2.30;;;16.40;1.00;;;;;;5054436;28;20052;-42
2023/03/16 03:04:23;;;;;;;3.80;1.90;;;16.30;1.00;;;;;;5036231;28;20041;-44
2023/03/16 03:06:50;;;;;;;5.88;2.83;;;16.30;1.00;;;;;;5055250;28;20041;-43
2023/03/16 03:09:18;;;;;;;2.53;2.03;;;16.30;1.00;;;;;;5037178;28;20621;-44
2023/03/16 03:11:47;;;;;;;5.15;2.60;;;16.30;1.00;;;;;;5037116;28;20450;-43
2023/03/16 03:14:15;;;;;;;3.33;2.28;;;16.30;1.00;;;;;;5036382;28;20508;-43
2023/03/16 03:16:45;;;;;;;3.60;2.17;;;16.30;1.00;;;;;;5037048;28;20037;-43
2023/03/16 03:19:14;;;;;;;2.67;2.08;;;16.30;1.00;;;;;;5037727;28;20063;-44
2023/03/16 03:21:41;;;;;;;2.67;1.83;;;16.30;1.00;;;;;;5036984;28;20037;-43
2023/03/16 03:24:08;;;;;;;4.60;2.40;;;16.30;1.00;;;;;;5054005;28;20041;-44
2023/03/16 03:26:39;;;;;;;3.20;2.28;;;16.30;1.00;;;;;;5054852;28;20036;-43
2023/03/16 03:29:12;;;;;;;3.85;2.72;;;16.30;1.00;;;;;;5054737;28;20508;-44
2023/03/16 03:31:39;;;;;;;3.83;2.25;;;16.20;1.00;;;;;;5054305;28;20064;-44
2023/03/16 03:34:06;;;;;;;2.47;2.10;;;16.20;1.00;;;;;;5035339;28;20718;-44
2023/03/16 03:36:34;;;;;;;4.60;2.40;;;16.20;1.00;;;;;;5054019;28;20112;-44
2023/03/16 03:39:03;;;;;;;2.25;2.03;;;16.20;1.00;;;;;;5035916;28;20045;-43
2023/03/16 03:41:32;;;;;;;3.65;2.55;;;16.20;1.00;;;;;;5036554;28;20071;-44
2023/03/16 03:44:01;;;;;;;3.72;2.60;;;16.20;1.00;;;;;;5035941;28;20041;-44
2023/03/16 03:46:28;;;;;;;3.30;2.33;;;16.20;1.00;;;;;;5036502;28;20051;-44
2023/03/16 03:49:00;;;;;;;3.08;2.22;;;16.20;1.00;;;;;;5053277;28;20717;-40
2023/03/16 03:51:27;;;;;;;3.30;2.42;;;16.10;1.00;;;;;;5036583;28;20132;-43
2023/03/16 03:54:02;;;;;;;3.58;2.55;;;16.10;1.00;;;;;;5035582;28;20045;-44
2023/03/16 03:56:52;;;;;;;4.72;2.53;;;16.10;1.00;;;;;;5035960;28;20579;-44
2023/03/16 03:59:19;;;;;;;2.88;1.77;;;16.10;1.00;;;;;;5035656;28;20041;-43
2023/03/16 04:02:04;;;;;;;3.13;2.20;;;16.10;1.00;;;;;;5053605;28;20754;-42
2023/03/16 04:04:48;;;;;;;4.78;2.42;;;16.00;1.00;;;;;;5052910;28;20041;-43
2023/03/16 04:07:15;;;;;;;4.10;2.97;;;16.00;1.00;;;;;;5053703;28;20033;-44
2023/03/16 04:09:43;;;;;;;3.63;2.80;;;16.00;1.00;;;;;;5036333;28;20520;-44
2023/03/16 04:12:20;;;;;;;3.75;2.33;;;16.00;1.00;;;;;;5035660;28;20132;-43
2023/03/16 04:14:47;;;;;;;3.78;2.33;;;16.00;1.00;;;;;;5035659;28;20638;-42
2023/03/16 04:17:15;;;;;;;3.38;2.13;;;16.00;1.00;;;;;;5035839;28;20551;-45
2023/03/16 04:19:43;;;;;;;2.75;2.45;;;16.00;1.00;;;;;;5035878;28;20098;-44
2023/03/16 04:22:13;;;;;;;2.97;2.13;;;16.00;1.00;;;;;;5035847;28;20163;-44
2023/03/16 04:24:42;;;;;;;2.95;2.55;;;16.00;1.00;;;;;;5035288;28;20041;-42
2023/03/16 04:27:12;;;;;;;4.00;2.88;;;16.00;1.00;;;;;;5035601;28;20459;-44
2023/03/16 04:29:39;;;;;;;3.25;2.65;;;15.90;1.00;;;;;;5035146;28;20041;-44
2023/03/16 04:32:06;;;;;;;3.67;2.45;;;15.90;1.00;;;;;;5034993;28;20045;-44
2023/03/16 04:34:34;;;;;;;2.60;2.38;;;15.90;1.00;;;;;;5034374;28;20051;-43
2023/03/16 04:37:04;;;;;;;3.90;2.78;;;15.90;1.00;;;;;;5035503;28;20041;-44
2023/03/16 04:39:33;;;;;;;4.45;2.75;;;15.90;1.00;;;;;;5034676;28;20091;-43
2023/03/16 04:42:00;;;;;;;3.90;2.63;;;15.80;1.00;;;;;;5035295;28;20076;-43
2023/03/16 04:44:27;;;;;;;4.20;2.63;;;15.90;1.00;;;;;;5034668;28;20077;-44
2023/03/16 04:46:55;;;;;;;3.88;2.70;;;15.80;1.00;;;;;;5035496;28;20041;-44
2023/03/16 04:49:24;;;;;;;3.78;3.15;;;15.80;1.00;;;;;;5035390;28;20052;-43
2023/03/16 04:51:50;;;;;;;3.92;2.60;;;15.80;1.00;;;;;;5035275;28;20493;-44
2023/03/16 04:54:19;;;;;;;11.77;2.80;;;15.80;1.00;;;;;;5034610;28;20052;-43
2023/03/16 04:56:47;;;;;;;2.95;2.63;;;15.80;1.00;;;;;;5034604;28;20098;-42
2023/03/16 04:59:39;;;;;;;3.78;2.53;;;15.70;1.00;;;;;;5034332;28;20424;-44
2023/03/16 05:02:18;;;;;;;4.70;2.97;;;15.70;1.00;;;;;;5034229;28;20420;-41
2023/03/16 05:04:47;;;;;;;5.80;3.33;;;15.70;1.00;;;;;;5033840;28;20081;-44
2023/03/16 05:07:14;;;;;;;4.53;2.75;;;15.70;1.00;;;;;;5038038;28;20531;-44
2023/03/16 05:09:47;;;;;;;4.40;3.08;;;15.70;1.00;;;;;;5048903;28;20404;-44
2023/03/16 05:12:13;;;;;;;3.78;3.47;;;15.70;1.00;;;;;;5052531;28;20500;-44
2023/03/16 05:14:42;;;;;;;4.38;2.85;;;15.60;1.00;;;;;;5038266;28;20037;-42
2023/03/16 05:17:32;;;;;;;3.42;2.75;;;15.60;1.00;;;;;;5044269;28;20136;-43
2023/03/16 05:20:00;;;;;;;4.10;2.80;;;15.60;1.00;;;;;;5052647;28;20043;-44
2023/03/16 05:22:27;;;;;;;5.50;3.17;;;15.60;1.00;;;;;;5051890;28;20102;-44
2023/03/16 05:25:13;;;;;;;5.30;2.92;;;15.60;1.00;;;;;;5033842;28;20041;-43
2023/03/16 05:27:51;;;;;;;14.82;4.80;;;15.60;1.00;;;;;;5034101;28;20045;-42
2023/03/16 05:30:25;;;;;;;11.52;3.47;;;15.60;1.00;;;;;;5034054;28;20044;-44
2023/03/16 05:32:56;;;;;;;6.47;2.72;;;15.60;1.00;;;;;;5033306;28;20416;-42
2023/03/16 05:35:24;;;;;;;5.93;2.80;;;15.60;1.00;;;;;;5034461;28;20049;-41
2023/03/16 05:37:56;;;;;;;8.35;3.55;;;15.60;1.00;;;;;;5051164;28;20126;-44
2023/03/16 05:40:23;;;;;;;6.10;3.28;;;15.50;1.00;;;;;;5034541;28;20464;-42
2023/03/16 05:42:59;;;;;;;4.45;3.28;;;15.60;1.00;;;;;;5033803;28;20508;-43
2023/03/16 05:45:28;;;;;;;5.40;3.15;;;15.60;1.00;;;;;;5051007;28;20539;-44
2023/03/16 05:48:05;;;;;;;9.35;2.90;;;15.60;1.00;;;;;;5034523;28;20048;-45
2023/03/16 05:50:36;;;;;;;5.40;2.75;;;15.50;1.00;;;;;;5051103;28;20071;-44
2023/03/16 05:53:03;;;;;;;5.63;2.95;;;15.60;1.00;;;;;;5051701;28;20052;-44
2023/03/16 05:55:30;;;;;;;6.22;3.10;;;15.60;1.00;;;;;;5050910;28;20045;-44
2023/03/16 05:58:00;;;;;;;5.72;2.90;;;15.50;1.00;;;;;;5034365;28;20049;-43
2023/03/16 06:00:30;;;;;;;5.97;3.10;;;15.50;1.00;;;;;;5050828;28;20076;-44
2023/03/16 06:03:15;;;;;;;3.92;2.92;;;15.50;1.00;;;;;;5074339;28;20068;-44
2023/03/16 06:05:42;;;;;;;10.77;3.85;;;15.50;1.00;;;;;;5048968;28;20093;-44
2023/03/16 06:08:10;;;;;;;4.18;2.67;;;15.50;1.00;;;;;;5043656;28;20041;-43
2023/03/16 06:10:40;;;;;;;10.43;3.28;;;15.50;1.00;;;;;;5033884;28;20037;-44
2023/03/16 06:13:07;;;;;;;6.82;2.35;;;15.50;1.00;;;;;;5027345;28;20045;-44
2023/03/16 06:15:35;;;;;;;8.23;3.25;;;15.50;1.00;;;;;;5022173;28;20143;-43
2023/03/16 06:18:02;;;;;;;4.38;3.10;;;15.50;1.00;;;;;;5041114;28;20053;-44
2023/03/16 06:20:28;;;;;;;4.72;2.80;;;15.50;1.00;;;;;;5013212;28;20080;-43
2023/03/16 06:22:56;;;;;;;4.45;2.72;;;15.40;1.00;;;;;;5012263;28;20407;-42
2023/03/16 06:25:25;;;;;;;6.70;3.15;;;15.40;1.00;;;;;;5026942;28;20052;-43
2023/03/16 06:27:53;;;;;;;3.13;2.30;;;15.40;1.00;;;;;;5033522;28;20073;-44
2023/03/16 06:30:20;;;;;;;4.70;2.58;;;15.40;1.00;;;;;;5033523;28;20535;-43
2023/03/16 06:32:47;;;;;;;11.10;3.10;;;15.40;1.00;;;;;;5033021;28;20605;-42
2023/03/16 06:35:14;;;;;;;3.38;2.67;;;15.40;1.00;;;;;;5033518;28;20412;-43
2023/03/16 06:37:47;;;;;;;4.10;2.10;;;15.40;1.00;;;;;;5033854;28;20130;-41
2023/03/16 06:40:43;;;;;;;6.90;2.30;;;15.40;1.00;;;;;;5033642;28;20044;-43
2023/03/16 06:43:10;;;;;;;7.55;2.92;;;15.30;1.00;;;;;;5050951;28;20037;-43
2023/03/16 06:45:36;;;;;;;6.60;3.28;;;15.30;1.00;;;;;;5051459;28;20037;-44
2023/03/16 06:48:05;;;;;;;5.25;2.55;;;15.30;1.00;;;;;;5033606;28;20072;-43
2023/03/16 06:50:32;;;;;;;3.67;2.65;;;15.30;1.00;;;;;;5051488;28;20119;-43
2023/03/16 06:52:59;;;;;;;4.50;3.13;;;15.30;1.00;;;;;;5032887;28;20041;-43
2023/03/16 06:55:28;;;;;;;5.18;2.42;;;15.30;1.00;;;;;;5033403;28;20059;-39
2023/03/16 06:57:55;;;;;;;10.30;2.75;;;15.30;1.00;;;;;;5096021;22;20044;-37
2023/03/16 07:00:23;;;;;;;3.70;2.13;;;15.30;1.00;;;;;;5073064;28;20059;-37
2023/03/16 07:02:50;;;;;;;4.63;2.88;;;15.30;1.00;;;;;;5090870;28;20097;-37
2023/03/16 07:05:17;;;;;;;7.00;3.15;;;15.30;1.00;;;;;;5073248;28;20089;-37
2023/03/16 07:07:44;;;;;;;3.38;2.38;;;15.20;1.00;;;;;;5073474;28;20085;-37
2023/03/16 07:10:16;;;;;;;4.70;3.03;;;15.20;1.00;;;;;;5073392;28;20036;-37
2023/03/16 07:12:43;;;;;;;3.40;2.65;;;15.20;1.00;;;;;;5072596;28;20044;-37
2023/03/16 07:15:11;;;;;;;3.35;2.33;;;15.20;1.00;;;;;;5073484;28;20044;-37
2023/03/16 07:17:41;;;;;;;2.85;2.20;;;15.20;1.00;;;;;;5073375;28;20526;-37
2023/03/16 07:20:10;;;;;;;4.35;2.30;;;15.20;1.00;;;;;;5073379;28;20552;-37
2023/03/16 07:22:38;;;;;;;4.95;2.20;;;15.20;1.00;;;;;;5073794;28;20044;-37
2023/03/16 07:25:10;;;;;;;4.38;2.95;;;15.20;1.00;;;;;;5076860;28;20044;-37
2023/03/16 07:27:44;;;;;;;3.70;2.28;;;15.20;1.00;;;;;;5077051;28;20040;-37
2023/03/16 07:30:13;;;;;;;3.25;2.17;;;15.20;1.00;;;;;;5077037;28;20055;-37
2023/03/16 07:32:42;;;;;;;3.80;2.60;;;15.20;1.00;;;;;;5076100;28;20067;-37
2023/03/16 07:35:10;;;;;;;2.13;1.83;;;15.20;1.00;;;;;;5076840;28;20040;-37
2023/03/16 07:37:38;;;;;;;3.22;2.55;;;15.20;1.00;;;;;;5076654;28;20054;-37
2023/03/16 07:40:08;;;;;;;4.38;2.17;;;15.20;1.00;;;;;;5076780;28;20048;-37
2023/03/16 07:42:36;;;;;;;3.83;2.33;;;15.10;1.00;;;;;;5076554;28;20039;-37
2023/03/16 07:45:23;;;;;;;2.63;2.25;;;15.10;1.00;;;;;;5094220;28;20118;-37
2023/03/16 07:47:50;;;;;;;3.33;2.17;;;15.10;1.00;;;;;;5076790;28;20085;-36
2023/03/16 07:50:32;;;;;;;3.08;2.10;;;15.10;1.00;;;;;;5076709;28;20044;-37
2023/03/16 07:52:59;;;;;;;4.47;2.25;;;15.10;1.00;;;;;;5075932;28;20044;-37
2023/03/16 07:55:26;;;;;;;2.83;2.25;;;15.10;1.00;;;;;;5076467;28;20055;-37
2023/03/16 07:57:54;;;;;;;5.35;2.35;;;15.10;1.00;;;;;;5076284;28;20070;-37
2023/03/16 08:00:27;;;;;;;;;;;15.10;1.00;;;;;;5076930;28;20047;-37
2023/03/16 08:02:56;;;;;;;3.85;1.83;;;15.10;1.00;;;;;;5093828;28;20398;-37
2023/03/16 08:05:23;;;;;;;5.40;1.92;;;15.10;1.00;;;;;;5076431;28;20566;-37
2023/03/16 08:07:57;;;;;;;7.15;2.40;;;15.00;1.00;;;;;;5076388;28;20495;-37
2023/03/16 08:10:27;;;;;;;5.90;2.25;;;15.00;1.00;;;;;;5075815;28;20052;-37
2023/03/16 08:13:06;;;;;;;3.10;1.98;;;15.00;1.00;;;;;;5075293;28;20044;-37
2023/03/16 08:15:35;;;;;;;2.95;2.47;;;15.00;1.00;;;;;;5076332;28;20044;-37
2023/03/16 08:18:09;;;;;;;;;;;15.00;1.00;;;;;;5076552;28;20098;-37
2023/03/16 08:20:36;;;;;;;5.68;2.03;;;15.00;1.00;;;;;;5075942;28;19969;-37
2023/03/16 08:23:03;;;;;;;5.07;2.10;;;15.00;1.00;;;;;;5058845;28;20072;-37
2023/03/16 08:25:36;;;;;;;3.00;2.10;;;15.00;1.00;;;;;;5075716;28;20135;-37
2023/03/16 08:28:11;;;;;;;2.83;1.70;;;15.00;1.00;;;;;;5076004;28;20522;-37
2023/03/16 08:30:49;;;;;;;3.88;1.90;;;15.00;1.00;;;;;;5075874;28;20127;-37
2023/03/16 08:33:24;;;;;;;6.20;2.13;;;15.00;1.00;;;;;;5075153;28;20415;-37
2023/03/16 08:35:51;;;;;;;3.38;2.17;;;14.90;1.00;;;;;;5074921;28;20058;-37
2023/03/16 08:38:19;;;;;;;3.08;1.73;;;14.90;1.00;;;;;;5075968;28;20040;-37
2023/03/16 08:40:49;;;;;;;5.05;2.30;;;14.90;1.00;;;;;;5075666;28;20143;-37
2023/03/16 08:43:19;;;;;;;4.03;1.88;;;14.90;1.00;;;;;;5074796;28;20101;-37
2023/03/16 08:45:47;;;;;;;3.30;1.80;;;14.90;1.00;;;;;;5075397;28;20051;-37
2023/03/16 08:48:17;;;;;;;3.08;1.83;;;14.90;1.00;;;;;;5075530;28;20051;-37
2023/03/16 08:50:47;;;;;;;4.13;2.08;;;14.90;1.00;;;;;;5075476;28;20056;-37
2023/03/16 08:53:14;;;;;;;2.90;1.50;;;14.90;1.00;;;;;;5092807;28;20036;-37
2023/03/16 08:55:40;;;;;;;4.35;1.75;;;14.90;1.00;;;;;;5093579;28;20063;-37
2023/03/16 08:58:09;;;;;;;3.00;2.00;;;14.90;1.00;;;;;;5093495;28;20089;-37
2023/03/16 09:00:37;;;;;;;5.28;1.77;;;14.90;1.00;;;;;;5093275;28;20119;-37
2023/03/16 09:03:04;;;;;;;2.50;1.95;;;14.90;1.00;;;;;;5092437;28;20115;-37
2023/03/16 09:05:31;;;;;;;4.18;1.50;;;14.90;1.00;;;;;;5093246;28;20040;-37
2023/03/16 09:08:00;;;;;;;2.22;1.48;;;14.90;1.00;;;;;;5093224;28;20134;-37
2023/03/16 09:10:27;;;;;;;2.25;1.85;;;14.90;1.00;;;;;;5093397;28;20047;-37
2023/03/16 09:12:55;;;;;;;3.65;1.80;;;14.80;1.00;;;;;;5092547;28;20510;-37
2023/03/16 09:15:22;;;;;;;3.58;1.83;;;14.90;1.00;;;;;;5093006;28;20047;-37
2023/03/16 09:17:49;;;;;;;2.90;2.20;;;14.80;1.00;;;;;;5093007;28;20556;-37
2023/03/16 09:20:17;;;;;;;2.75;1.75;;;14.80;1.00;;;;;;5093102;28;20035;-37
2023/03/16 09:23:00;;;;;;;2.67;1.58;;;14.80;1.00;;;;;;5092411;28;20050;-37
2023/03/16 09:25:27;;;;;;;4.47;2.35;;;14.80;1.00;;;;;;5092950;28;20051;-37
2023/03/16 09:27:54;;;;;;;2.67;1.77;;;14.80;1.00;;;;;;5092714;28;20059;-37
2023/03/16 09:30:21;;;;;;;3.70;1.50;;;14.80;1.00;;;;;;5092836;28;20047;-37
2023/03/16 09:32:49;;;;;;;3.08;1.73;;;14.80;1.00;;;;;;5074185;28;20399;-37
2023/03/16 09:35:16;;;;;;;2.75;1.92;;;14.80;1.00;;;;;;5092641;28;20040;-37
2023/03/16 09:37:44;;;;;;;3.00;1.90;;;14.80;1.00;;;;;;5093174;28;20060;-37
2023/03/16 09:40:31;;;;;;;4.72;1.77;;;14.80;1.00;;;;;;5092625;28;20072;-37
2023/03/16 09:43:19;;;;;;;2.40;1.52;;;14.80;1.00;;;;;;5073719;28;20463;-37
2023/03/16 09:46:08;;;;;;;2.97;1.92;;;14.80;1.00;;;;;;5091973;28;20048;-37
2023/03/16 09:48:37;;;;;;;3.75;2.03;;;14.80;1.00;;;;;;5074389;28;20097;-36
2023/03/16 09:51:26;;;;;;;4.78;1.70;;;14.80;1.00;;;;;;5092414;28;20040;-37
2023/03/16 09:53:58;;;;;;;3.95;1.80;;;14.80;1.00;;;;;;5060639;28;20059;-37
2023/03/16 09:56:32;;;;;;;3.08;1.38;;;14.80;1.00;;;;;;5092414;28;20044;-37
2023/03/16 09:58:59;;;;;;;2.67;1.27;;;14.80;1.00;;;;;;5092193;28;20134;-37
2023/03/16 10:01:57;;;;;;;2.53;1.52;;;14.80;1.00;;;;;;5092151;28;20101;-37
2023/03/16 10:05:11;;;;;;;2.47;1.38;;;14.80;1.00;;;;;;5073375;28;20411;-37
2023/03/16 10:08:02;;;;;;;2.28;1.70;;;14.80;1.00;;;;;;5091788;28;20058;-37
2023/03/16 10:10:39;;;;;;;2.60;1.60;;;14.80;1.00;;;;;;5092311;28;20047;-37
2023/03/16 10:13:37;;;;;;;1.80;1.30;;;14.80;1.00;;;;;;5073504;28;20040;-37
2023/03/16 10:16:15;;;;;;;3.03;1.67;;;14.80;1.00;;;;;;5083926;28;20060;-37
2023/03/16 10:18:52;;;;;;;4.25;1.70;;;14.80;1.00;;;;;;5092166;28;20113;-37
2023/03/16 10:21:38;;;;;;;2.85;1.75;;;14.80;1.00;;;;;;5092218;28;20143;-37
2023/03/16 10:24:18;;;;;;;2.70;1.80;;;14.80;1.00;;;;;;5091123;28;20454;-37
2023/03/16 10:26:54;;;;;;;2.47;1.50;;;14.80;1.00;;;;;;5092032;28;20068;-37
2023/03/16 10:29:21;;;;;;;2.47;1.38;;;14.80;1.00;;;;;;5092022;28;20380;-37
2023/03/16 10:31:48;;;;;;;3.50;1.90;;;14.80;1.00;;;;;;5091817;28;20399;-37
2023/03/16 10:34:14;;;;;;;2.33;1.63;;;14.80;1.00;;;;;;5090993;28;20477;-37
2023/03/16 10:36:43;;;;;;;2.08;1.38;;;14.80;1.00;;;;;;5091905;28;20055;-37
2023/03/16 10:39:13;;;;;;;2.00;1.50;;;14.80;1.00;;;;;;5091956;28;20074;-37
2023/03/16 10:41:44;;;;;;;2.03;1.50;;;14.80;1.00;;;;;;5091907;28;20522;-37
2023/03/16 10:44:30;;;;;;;3.40;1.77;;;14.80;1.00;;;;;;5090901;28;20119;-37
2023/03/16 10:47:06;;;;;;;2.75;1.77;;;14.80;1.00;;;;;;5091895;28;20480;-37
2023/03/16 10:49:43;;;;;;;2.08;1.42;;;14.80;1.00;;;;;;5091710;28;20036;-37
2023/03/16 10:52:22;;;;;;;2.85;1.40;;;14.80;1.00;;;;;;5091355;28;20044;-37
2023/03/16 10:54:59;;;;;;;3.67;1.95;;;14.80;1.00;;;;;;5091242;28;20044;-37
2023/03/16 10:57:35;;;;;;;2.88;1.33;;;14.80;1.00;;;;;;5092484;28;20514;-37
2023/03/16 11:00:09;;;;;;;2.35;1.77;;;14.80;1.00;;;;;;5095559;28;20127;-37
2023/03/16 11:02:35;;;;;;;4.10;1.50;;;14.80;1.00;;;;;;5095461;28;20054;-37
2023/03/16 11:05:17;;;;;;;3.90;1.90;;;14.80;1.00;;;;;;5095670;28;20127;-37
2023/03/16 11:07:58;;;;;;;2.05;1.20;;;14.80;1.00;;;;;;5095610;28;20044;-37
2023/03/16 11:10:34;;;;;;;4.18;1.88;;;14.80;1.00;;;;;;5095560;28;20595;-37
2023/03/16 11:13:13;;;;;;;4.25;1.95;;;14.80;1.00;;;;;;5094822;28;20032;-37
2023/03/16 11:16:05;;;;;;;2.40;1.80;;;14.80;1.00;;;;;;5095520;28;20036;-37
2023/03/16 11:18:36;;;;;;;3.97;1.80;;;14.80;1.00;;;;;;5066082;28;20096;-37
2023/03/16 11:21:17;;;;;;;3.30;1.48;;;14.80;1.00;;;;;;5095527;28;20046;-37
2023/03/16 11:23:55;;;;;;;2.42;1.52;;;14.80;1.00;;;;;;5094665;28;20135;-37
2023/03/16 11:26:31;;;;;;;2.72;1.70;;;14.80;1.00;;;;;;5076981;28;20093;-37
2023/03/16 11:29:23;;;;;;;2.65;1.92;;;14.80;1.00;;;;;;5095148;28;20116;-37
2023/03/16 11:32:02;;;;;;;3.45;1.70;;;14.80;1.00;;;;;;5095455;28;20152;-37
2023/03/16 11:34:31;;;;;;;2.55;1.25;;;14.80;1.00;;;;;;5094392;28;20036;-37
2023/03/16 11:37:22;;;;;;;1.58;1.30;;;14.80;1.00;;;;;;5095014;28;20063;-37
2023/03/16 11:40:29;;;;;;;2.85;1.83;;;14.80;1.00;;;;;;5095163;28;20514;-37
2023/03/16 11:43:14;;;;;;;5.28;1.60;;;14.80;1.00;;;;;;5094169;28;20074;-37
2023/03/16 11:46:15;;;;;;;2.60;1.27;;;14.80;1.00;;;;;;5094859;28;20040;-37
2023/03/16 11:49:02;;;;;;;3.60;1.80;;;14.80;1.00;;;;;;5094949;28;20071;-37
2023/03/16 11:52:07;;;;;;;2.85;1.77;;;14.80;1.00;;;;;;5094939;28;20069;-37
2023/03/16 11:54:47;;;;;;;3.15;1.70;;;14.80;1.00;;;;;;5094207;28;20040;-37
2023/03/16 11:57:41;;;;;;;3.17;1.95;;;14.80;1.00;;;;;;5094616;28;20044;-37
2023/03/16 12:00:34;;;;;;;2.60;1.73;;;14.70;1.00;;;;;;5075974;28;20246;-37
2023/03/16 12:03:26;;;;;;;4.65;1.50;;;14.80;1.00;;;;;;5094164;28;20044;-37
2023/03/16 12:06:22;;;;;;;3.45;1.88;;;14.80;1.00;;;;;;5094486;28;20036;-37
2023/03/16 12:09:27;;;;;;;3.97;1.55;;;14.80;1.00;;;;;;5093755;28;20044;-37
2023/03/16 12:12:16;;;;;;;2.75;1.83;;;14.80;1.00;;;;;;5076249;28;20091;-37
2023/03/16 12:15:07;;;;;;;2.83;1.40;;;14.80;1.00;;;;;;5093965;28;20047;-37
2023/03/16 12:17:36;;;;;;;4.95;1.30;;;14.80;1.00;;;;;;5094361;28;20160;-37
2023/03/16 12:20:35;;;;;;;4.32;1.90;;;14.80;1.00;;;;;;5094174;28;20044;-37
2023/03/16 12:23:12;;;;;;;3.30;1.60;;;14.80;1.00;;;;;;5059468;28;20472;-37
2023/03/16 12:25:44;;;;;;;4.18;1.60;;;14.80;1.00;;;;;;5094110;28;20047;-36
2023/03/16 12:28:23;;;;;;;5.53;1.70;;;14.80;1.00;;;;;;5094121;28;20040;-37
2023/03/16 12:30:59;;;;;;;2.83;1.45;;;14.80;1.00;;;;;;5094202;28;20441;-37
2023/03/16 12:33:54;;;;;;;3.95;1.50;;;14.80;1.00;;;;;;5093178;28;20093;-37
2023/03/16 12:36:42;;;;;;;2.83;1.67;;;14.80;1.00;;;;;;5093936;28;20555;-37
2023/03/16 12:39:38;;;;;;;3.28;1.30;;;14.80;1.00;;;;;;5093869;28;20040;-37
2023/03/16 12:42:20;;;;;;;4.47;1.83;;;14.80;1.00;;;;;;5093887;28;20541;-37
2023/03/16 12:45:07;;;;;;;2.20;1.58;;;14.80;1.00;;;;;;5093428;28;20040;-37
2023/03/16 12:47:59;;;;;;;4.90;1.50;;;14.80;1.00;;;;;;5093662;28;20036;-37
2023/03/16 12:50:26;;;;;;;4.55;1.58;;;14.80;1.00;;;;;;5093746;28;20100;-37
2023/03/16 12:52:53;;;;;;;4.65;2.15;;;14.80;1.00;;;;;;5092861;28;20064;-37
2023/03/16 12:55:26;;;;;;;2.13;1.42;;;14.80;1.00;;;;;;5093662;28;20043;-37
2023/03/16 12:58:01;;;;;;;;;;;14.80;1.00;;;;;;5104316;22;20560;-36
2023/03/16 13:00:34;;;;;;;3.47;1.58;;;14.80;1.00;;;;;;5093366;28;20275;-36
2023/03/16 13:03:03;;;;;;;3.88;1.42;;;14.80;1.00;;;;;;5092768;28;20348;-36
2023/03/16 13:05:37;;;;;;;4.43;1.13;;;14.80;1.00;;;;;;5093276;28;20048;-36
2023/03/16 13:08:10;;;;;;;3.28;1.42;;;14.80;1.00;;;;;;5093371;28;20036;-36
2023/03/16 13:10:37;;;;;;;;;;;14.80;1.00;;;;;;5093608;28;20675;-36
2023/03/16 13:13:13;;;;;;;2.17;1.52;;;14.80;1.00;;;;;;5092610;28;19950;-36
2023/03/16 13:15:48;;;;;;;3.88;1.55;;;14.80;1.00;;;;;;5093146;28;20040;-37
2023/03/16 13:18:15;;;;;;;3.70;1.58;;;14.80;1.00;;;;;;5093286;28;20044;-35
2023/03/16 13:20:57;;;;;;;5.95;2.35;;;14.80;1.00;;;;;;5093045;28;20408;-35
2023/03/16 13:23:26;;;;;;;2.67;1.33;;;14.80;1.00;;;;;;5092308;28;20048;-36
2023/03/16 13:25:59;;;;;;;2.28;1.55;;;14.80;1.00;;;;;;5093012;28;20048;-35
2023/03/16 13:28:34;;;;;;;8.05;1.33;;;14.80;1.00;;;;;;5093046;28;20445;-36
2023/03/16 13:31:01;;;;;;;4.45;1.40;;;14.80;1.00;;;;;;5092970;28;20044;-36